createdAt,value
2019-03-25T00:05:20.745Z,73.80
2019-03-25T00:08:11.123Z,73.68
2019-03-25T00:11:01.465Z,73.45
2019-03-25T00:13:51.800Z,73.55
2019-03-25T00:16:42.095Z,74.12
2019-03-25T00:19:32.442Z,74.72
2019-03-25T00:22:22.754Z,74.07
2019-03-25T00:25:13.129Z,74.15
2019-03-25T00:28:03.451Z,73.88
2019-03-25T00:30:34.400Z,74.37
2019-03-25T00:33:24.754Z,74.41
2019-03-25T00:36:15.116Z,74.18
2019-03-25T00:42:27.546Z,73.60
2019-03-25T00:45:17.920Z,73.50
2019-03-25T00:48:08.315Z,73.85
2019-03-25T00:50:58.615Z,74.00
2019-03-25T00:53:48.932Z,74.02
2019-03-25T00:56:39.262Z,74.02
2019-03-25T00:59:31.671Z,73.98
2019-03-25T01:02:21.979Z,73.96
2019-03-25T01:05:12.471Z,73.79
2019-03-25T01:08:02.780Z,74.23
2019-03-25T01:10:53.207Z,74.63
2019-03-25T01:13:43.527Z,75.18
2019-03-25T01:16:33.871Z,75.24
2019-03-25T01:19:04.796Z,75.14
2019-03-25T01:21:55.136Z,75.45
2019-03-25T01:24:45.460Z,75.62
2019-03-25T01:27:18.053Z,75.47
2019-03-25T01:30:09.052Z,75.68
2019-03-25T01:32:40.601Z,76.54
2019-03-25T01:35:30.924Z,76.29
2019-03-25T01:38:21.264Z,76.20
2019-03-25T01:41:11.583Z,76.47
2019-03-25T01:44:01.925Z,76.53
2019-03-25T01:46:52.243Z,77.19
2019-03-25T01:49:42.596Z,77.09
2019-03-25T01:52:32.916Z,77.04
2019-03-25T01:55:23.281Z,76.59
2019-03-25T01:58:13.596Z,76.23
2019-03-25T02:01:03.951Z,76.60
2019-03-25T02:03:54.258Z,76.15
2019-03-25T02:06:44.576Z,75.10
2019-03-25T02:09:15.584Z,75.43
2019-03-25T02:12:05.925Z,74.57
2019-03-25T02:14:58.594Z,74.51
2019-03-25T02:17:48.929Z,73.94
2019-03-25T02:20:39.240Z,74.58
2019-03-25T02:23:29.555Z,74.67
2019-03-25T02:26:02.099Z,74.38
2019-03-25T02:28:52.429Z,73.83
2019-03-25T02:31:42.750Z,73.34
2019-03-25T02:34:33.107Z,73.53
2019-03-25T02:37:23.404Z,73.52
2019-03-25T02:40:14.099Z,73.82
2019-03-25T02:45:48.883Z,74.55
2019-03-25T02:48:39.192Z,74.69
2019-03-25T02:51:29.564Z,74.68
2019-03-25T02:54:19.874Z,75.05
2019-03-25T02:57:10.206Z,75.73
2019-03-25T03:00:00.581Z,75.78
2019-03-25T03:02:50.872Z,75.24
2019-03-25T03:05:41.182Z,75.09
2019-03-25T03:08:31.528Z,75.56
2019-03-25T03:11:40.567Z,75.41
2019-03-25T03:14:30.898Z,75.07
2019-03-25T03:17:21.205Z,75.47
2019-03-25T03:19:55.123Z,75.72
2019-03-25T03:22:44.199Z,75.18
2019-03-25T03:25:15.141Z,75.11
2019-03-25T03:27:46.057Z,75.59
2019-03-25T03:30:36.408Z,75.70
2019-03-25T03:33:26.747Z,75.53
2019-03-25T03:36:17.107Z,75.83
2019-03-25T03:39:08.113Z,75.69
2019-03-25T03:41:58.461Z,75.45
2019-03-25T03:44:48.773Z,75.69
2019-03-25T03:47:39.125Z,75.71
2019-03-25T03:50:29.885Z,75.23
2019-03-25T03:53:59.357Z,75.46
2019-03-25T04:03:15.724Z,76.11
2019-03-25T04:06:06.099Z,76.19
2019-03-25T04:08:56.396Z,76.51
2019-03-25T04:11:46.711Z,76.51
2019-03-25T04:14:37.062Z,76.41
2019-03-25T04:17:27.384Z,75.40
2019-03-25T04:20:17.716Z,75.72
2019-03-25T04:23:08.047Z,75.94
2019-03-25T04:25:58.394Z,76.06
2019-03-25T04:28:48.684Z,75.90
2019-03-25T04:31:39.023Z,75.99
2019-03-25T04:34:29.364Z,76.23
2019-03-25T04:37:19.697Z,76.41
2019-03-25T04:40:49.211Z,77.18
2019-03-25T04:43:39.520Z,77.83
2019-03-25T04:46:30.858Z,78.46
2019-03-25T04:49:21.183Z,79.28
2019-03-25T04:52:11.546Z,79.37
2019-03-25T04:55:03.017Z,79.63
2019-03-25T04:57:53.381Z,79.18
2019-03-25T05:00:43.708Z,79.04
2019-03-25T05:03:34.056Z,78.98
2019-03-25T05:06:24.349Z,78.57
2019-03-25T05:09:14.693Z,78.65
2019-03-25T05:12:05.007Z,78.71
2019-03-25T05:14:55.349Z,78.67
2019-03-25T05:17:45.667Z,78.75
2019-03-25T05:20:16.652Z,78.32
2019-03-25T05:23:06.968Z,77.99
2019-03-25T05:25:57.313Z,78.46
2019-03-25T05:28:47.617Z,78.62
2019-03-25T05:31:37.982Z,78.70
2019-03-25T05:34:28.294Z,78.51
2019-03-25T05:37:18.663Z,78.31
2019-03-25T05:40:09.119Z,78.41
2019-03-25T05:42:59.522Z,78.85
2019-03-25T05:45:49.839Z,78.32
2019-03-25T05:48:40.188Z,78.63
2019-03-25T05:51:30.894Z,78.99
2019-03-25T05:54:21.224Z,78.83
2019-03-25T05:57:11.588Z,79.46
2019-03-25T06:00:04.320Z,79.57
2019-03-25T06:02:54.670Z,79.02
2019-03-25T06:05:45.036Z,79.40
2019-03-25T06:08:16.008Z,79.55
2019-03-25T06:11:06.342Z,79.52
2019-03-25T06:13:56.673Z,80.06
2019-03-25T06:16:47.011Z,79.95
2019-03-25T06:19:37.398Z,80.54
2019-03-25T06:22:27.710Z,81.49
2019-03-25T06:25:18.097Z,81.70
2019-03-25T06:28:08.392Z,83.11
2019-03-25T06:30:58.784Z,83.48
2019-03-25T06:33:49.077Z,84.24
2019-03-25T06:36:39.461Z,83.85
2019-03-25T06:39:29.787Z,83.49
2019-03-25T06:42:20.193Z,83.45
2019-03-25T06:48:31.923Z,83.67
2019-03-25T06:51:22.279Z,84.08
2019-03-25T06:53:53.302Z,84.89
2019-03-25T06:56:43.659Z,85.53
2019-03-25T06:59:34.029Z,86.60
2019-03-25T07:02:24.359Z,86.17
2019-03-25T07:04:55.324Z,87.12
2019-03-25T07:07:45.624Z,87.59
2019-03-25T07:10:55.718Z,87.96
2019-03-25T07:13:46.068Z,88.49
2019-03-25T07:16:17.051Z,89.48
2019-03-25T07:19:07.315Z,89.91
2019-03-25T07:21:57.642Z,88.65
2019-03-25T07:24:47.973Z,85.38
2019-03-25T07:27:38.331Z,82.32
2019-03-25T07:30:28.649Z,79.48
2019-03-25T07:33:19.022Z,78.89
2019-03-25T07:36:09.329Z,78.49
2019-03-25T07:39:00.293Z,77.54
2019-03-25T07:41:51.731Z,77.30
2019-03-25T07:44:42.067Z,75.13
2019-03-25T07:47:32.429Z,76.48
2019-03-25T07:50:22.770Z,74.84
2019-03-25T07:53:14.101Z,75.04
2019-03-25T07:56:04.487Z,74.93
2019-03-25T07:58:54.875Z,73.48
2019-03-25T08:01:45.171Z,75.31
2019-03-25T08:04:16.165Z,73.68
2019-03-25T08:07:06.501Z,74.81
2019-03-25T08:09:56.869Z,76.34
2019-03-25T08:12:47.214Z,76.23
2019-03-25T08:15:37.611Z,75.20
2019-03-25T08:18:27.972Z,74.10
2019-03-25T08:21:18.428Z,74.45
2019-03-25T08:24:08.789Z,73.65
2019-03-25T08:26:59.153Z,74.21
2019-03-25T08:29:49.510Z,74.82
2019-03-25T08:32:39.872Z,74.45
2019-03-25T08:35:10.800Z,73.49
2019-03-25T08:38:01.151Z,73.87
2019-03-25T08:40:51.456Z,74.15
2019-03-25T08:43:41.807Z,73.21
2019-03-25T08:46:32.141Z,73.88
2019-03-25T08:49:03.177Z,74.08
2019-03-25T08:51:53.513Z,74.45
2019-03-25T08:54:26.082Z,74.30
2019-03-25T08:57:16.395Z,74.35
2019-03-25T09:00:46.089Z,74.12
2019-03-25T09:03:16.999Z,74.73
2019-03-25T09:06:07.332Z,74.53
2019-03-25T09:08:57.650Z,75.47
2019-03-25T09:11:48.037Z,75.49
2019-03-25T09:14:38.346Z,75.00
2019-03-25T09:17:28.738Z,75.31
2019-03-25T09:20:19.057Z,75.95
2019-03-25T09:23:29.131Z,75.83
2019-03-25T09:26:19.458Z,74.87
2019-03-25T09:29:09.818Z,75.97
2019-03-25T09:32:00.133Z,76.51
2019-03-25T09:34:50.472Z,75.36
2019-03-25T09:37:41.184Z,76.47
2019-03-25T09:40:31.584Z,76.18
2019-03-25T09:43:21.909Z,76.48
2019-03-25T09:46:12.275Z,75.46
2019-03-25T09:49:02.598Z,76.26
2019-03-25T09:51:53.093Z,74.29
2019-03-25T09:54:43.369Z,73.92
2019-03-25T09:57:33.735Z,73.16
2019-03-25T10:00:45.087Z,72.87
2019-03-25T10:03:35.479Z,70.58
2019-03-25T10:06:25.768Z,69.36
2019-03-25T10:09:16.142Z,67.14
2019-03-25T10:11:47.144Z,66.67
2019-03-25T10:14:37.608Z,65.09
2019-03-25T10:17:27.944Z,64.79
2019-03-25T10:20:18.392Z,65.30
2019-03-25T10:23:08.722Z,64.89
2019-03-25T10:25:59.195Z,64.41
2019-03-25T10:28:49.534Z,64.41
2019-03-25T10:31:40.026Z,63.86
2019-03-25T10:34:30.363Z,63.88
2019-03-25T10:37:20.832Z,65.00
2019-03-25T10:40:11.698Z,64.35
2019-03-25T10:43:02.061Z,63.44
2019-03-25T10:45:52.414Z,61.84
2019-03-25T10:48:23.444Z,61.33
2019-03-25T10:51:13.776Z,61.05
2019-03-25T10:54:04.285Z,61.37
2019-03-25T10:56:54.613Z,60.67
2019-03-25T10:59:45.039Z,60.67
2019-03-25T11:02:35.350Z,57.38
2019-03-25T11:05:25.844Z,57.38
2019-03-25T11:08:16.189Z,55.96
2019-03-25T11:11:06.560Z,55.40
2019-03-25T11:13:56.930Z,55.23
2019-03-25T11:16:47.273Z,53.53
2019-03-25T11:19:37.627Z,51.87
2019-03-25T11:22:30.068Z,49.67
2019-03-25T11:25:50.953Z,50.51
2019-03-25T11:28:41.308Z,50.47
2019-03-25T11:31:31.645Z,49.48
2019-03-25T11:34:21.985Z,50.04
2019-03-25T11:37:12.350Z,49.73
2019-03-25T11:40:02.903Z,49.05
2019-03-25T11:42:53.240Z,48.25
2019-03-25T11:48:46.537Z,46.88
2019-03-25T11:51:36.907Z,45.31
2019-03-25T11:54:09.483Z,43.63
2019-03-25T11:56:59.816Z,43.87
2019-03-25T11:59:50.119Z,43.09
2019-03-25T12:02:40.518Z,42.43
2019-03-25T12:05:30.934Z,42.06
2019-03-25T12:08:21.365Z,40.82
2019-03-25T12:11:11.774Z,39.34
2019-03-25T12:14:02.150Z,38.33
2019-03-25T12:16:52.460Z,39.78
2019-03-25T12:22:39.074Z,40.42
2019-03-25T12:25:29.547Z,40.86
2019-03-25T12:28:20.841Z,40.46
2019-03-25T12:31:03.261Z,38.99
2019-03-25T12:33:53.570Z,38.42
2019-03-25T12:36:44.093Z,38.22
2019-03-25T12:39:34.391Z,38.69
2019-03-25T12:42:24.709Z,37.46
2019-03-25T12:45:15.013Z,37.51
2019-03-25T12:48:05.341Z,37.46
2019-03-25T12:50:55.692Z,36.45
2019-03-25T12:53:45.998Z,36.17
2019-03-25T12:56:16.939Z,35.56
2019-03-25T12:59:07.226Z,34.77
2019-03-25T13:01:57.561Z,33.85
2019-03-25T13:04:47.862Z,33.80
2019-03-25T13:07:38.202Z,32.95
2019-03-25T13:10:28.493Z,31.69
2019-03-25T13:13:18.811Z,30.89
2019-03-25T13:16:09.156Z,29.04
2019-03-25T13:18:59.494Z,28.01
2019-03-25T13:21:50.758Z,29.13
2019-03-25T13:24:41.183Z,30.28
2019-03-25T13:27:31.451Z,31.12
2019-03-25T13:30:21.834Z,31.24
2019-03-25T13:33:12.149Z,32.29
2019-03-25T13:36:02.512Z,32.35
2019-03-25T13:38:52.770Z,32.31
2019-03-25T13:41:43.104Z,32.29
2019-03-25T13:44:33.462Z,32.06
2019-03-25T13:47:23.837Z,32.04
2019-03-25T13:50:14.248Z,30.61
2019-03-25T13:53:04.752Z,30.49
2019-03-25T13:55:55.029Z,29.63
2019-03-25T13:58:45.348Z,29.91
2019-03-25T14:01:35.643Z,29.95
2019-03-25T14:04:26.375Z,30.88
2019-03-25T14:07:16.810Z,32.93
2019-03-25T14:10:07.677Z,33.57
2019-03-25T14:12:58.007Z,33.74
2019-03-25T14:15:48.341Z,33.68
2019-03-25T14:18:38.651Z,33.71
2019-03-25T14:21:28.993Z,33.54
2019-03-25T14:24:19.352Z,33.19
2019-03-25T14:27:09.665Z,32.95
2019-03-25T14:30:00.004Z,31.33
2019-03-25T14:32:50.335Z,30.20
2019-03-25T14:35:40.641Z,30.06
2019-03-25T14:38:30.956Z,30.51
2019-03-25T14:41:21.297Z,31.63
2019-03-25T14:44:11.791Z,31.46
2019-03-25T14:47:02.075Z,32.56
2019-03-25T14:49:52.473Z,32.81
2019-03-25T14:52:42.791Z,33.05
2019-03-25T14:55:33.262Z,34.08
2019-03-25T14:58:23.577Z,34.66
2019-03-25T15:00:54.579Z,38.04
2019-03-25T15:03:44.919Z,39.63
2019-03-25T15:06:35.259Z,39.26
2019-03-25T15:09:25.589Z,40.21
2019-03-25T15:12:15.952Z,41.06
2019-03-25T15:15:06.806Z,40.63
2019-03-25T15:17:38.442Z,39.22
2019-03-25T15:20:28.724Z,38.84
2019-03-25T15:23:19.048Z,36.31
2019-03-25T15:26:09.343Z,37.72
2019-03-25T15:28:59.753Z,38.32
2019-03-25T15:35:00.724Z,37.19
2019-03-25T15:37:51.049Z,39.79
2019-03-25T15:40:41.431Z,41.08
2019-03-25T15:43:31.747Z,43.06
2019-03-25T15:46:22.176Z,44.43
2019-03-25T15:49:12.519Z,40.94
2019-03-25T15:52:02.874Z,39.44
2019-03-25T15:54:53.187Z,37.16
2019-03-25T15:57:43.579Z,34.75
2019-03-25T16:00:33.892Z,34.48
2019-03-25T16:03:24.234Z,34.39
2019-03-25T16:06:14.550Z,34.66
2019-03-25T16:12:08.994Z,33.06
2019-03-25T16:14:59.294Z,33.38
2019-03-25T16:17:49.726Z,34.59
2019-03-25T16:20:20.719Z,34.71
2019-03-25T16:23:11.083Z,34.51
2019-03-25T16:26:01.401Z,35.98
2019-03-25T16:28:51.741Z,35.09
2019-03-25T16:31:22.773Z,34.54
2019-03-25T16:33:53.711Z,34.43
2019-03-25T16:36:44.053Z,34.40
2019-03-25T16:39:34.401Z,34.75
2019-03-25T16:42:24.705Z,34.00
2019-03-25T16:45:15.183Z,34.32
2019-03-25T16:48:05.509Z,35.77
2019-03-25T16:50:55.859Z,37.58
2019-03-25T16:53:46.149Z,39.22
2019-03-25T16:56:17.185Z,40.09
2019-03-25T16:59:07.541Z,41.15
2019-03-25T17:01:57.875Z,42.19
2019-03-25T17:04:48.210Z,43.09
2019-03-25T17:07:38.527Z,43.54
2019-03-25T17:10:09.508Z,44.19
2019-03-25T17:12:59.838Z,44.58
2019-03-25T17:15:50.153Z,45.00
2019-03-25T17:18:40.470Z,45.25
2019-03-25T17:21:30.782Z,46.08
2019-03-25T17:24:21.126Z,46.66
2019-03-25T17:26:52.045Z,47.21
2019-03-25T17:29:42.414Z,47.32
2019-03-25T17:32:32.767Z,47.23
2019-03-25T17:35:23.091Z,47.56
2019-03-25T17:38:13.435Z,48.24
2019-03-25T17:41:03.877Z,48.79
2019-03-25T17:43:54.215Z,48.94
2019-03-25T17:46:44.547Z,49.31
2019-03-25T17:49:34.850Z,49.99
2019-03-25T17:52:25.234Z,50.32
2019-03-25T17:55:15.593Z,50.54
2019-03-25T17:58:08.066Z,51.03
2019-03-25T18:03:56.528Z,50.83
2019-03-25T18:06:46.903Z,50.79
2019-03-25T18:09:19.489Z,50.75
2019-03-25T18:11:52.040Z,51.04
2019-03-25T18:14:42.379Z,51.11
2019-03-25T18:17:32.754Z,50.83
2019-03-25T18:20:23.055Z,50.57
2019-03-25T18:23:13.453Z,50.51
2019-03-25T18:26:03.775Z,50.77
2019-03-25T18:28:54.118Z,51.30
2019-03-25T18:31:44.456Z,51.55
2019-03-25T18:34:34.806Z,51.56
2019-03-25T18:37:25.176Z,51.90
2019-03-25T18:40:15.514Z,52.30
2019-03-25T18:43:05.864Z,52.76
2019-03-25T18:45:56.215Z,53.17
2019-03-25T18:48:46.525Z,53.26
2019-03-25T18:51:17.881Z,54.20
2019-03-25T18:54:08.522Z,54.28
2019-03-25T18:56:39.617Z,54.66
2019-03-25T18:59:10.682Z,54.80
2019-03-25T19:02:01.034Z,55.01
2019-03-25T19:04:51.367Z,55.17
2019-03-25T19:08:20.824Z,55.12
2019-03-25T19:11:11.148Z,55.08
2019-03-25T19:14:01.489Z,55.00
2019-03-25T19:16:32.387Z,55.38
2019-03-25T19:19:22.723Z,55.56
2019-03-25T19:21:53.698Z,55.38
2019-03-25T19:24:44.039Z,55.46
2019-03-25T19:27:34.360Z,55.49
2019-03-25T19:30:24.759Z,55.09
2019-03-25T19:33:15.028Z,54.97
2019-03-25T19:36:05.427Z,54.86
2019-03-25T19:38:56.734Z,54.89
2019-03-25T19:42:06.018Z,55.45
2019-03-25T19:44:56.403Z,55.37
2019-03-25T19:47:46.705Z,55.92
2019-03-25T19:53:52.737Z,56.45
2019-03-25T19:56:23.705Z,57.15
2019-03-25T19:59:14.079Z,58.91
2019-03-25T20:02:04.390Z,60.87
2019-03-25T20:04:54.788Z,61.83
2019-03-25T20:07:45.102Z,62.33
2019-03-25T20:10:56.026Z,62.67
2019-03-25T20:13:46.360Z,63.13
2019-03-25T20:16:17.360Z,63.50
2019-03-25T20:19:07.652Z,63.85
2019-03-25T20:21:58.056Z,64.10
2019-03-25T20:24:48.414Z,64.21
2019-03-25T20:27:38.777Z,64.44
2019-03-25T20:30:29.092Z,64.38
2019-03-25T20:33:00.054Z,64.77
2019-03-25T20:35:50.336Z,64.90
2019-03-25T20:38:40.706Z,65.26
2019-03-25T20:41:31.116Z,65.12
2019-03-25T20:44:21.455Z,65.23
2019-03-25T20:47:11.801Z,65.46
2019-03-25T20:50:02.176Z,65.00
2019-03-25T20:52:52.576Z,64.75
2019-03-25T20:55:42.927Z,64.05
2019-03-25T20:58:33.242Z,63.92
2019-03-25T21:01:23.609Z,63.48
2019-03-25T21:04:13.966Z,63.28
2019-03-25T21:06:44.941Z,62.75
2019-03-25T21:09:35.285Z,62.90
2019-03-25T21:12:25.654Z,62.65
2019-03-25T21:18:41.274Z,62.28
2019-03-25T21:21:31.671Z,62.17
2019-03-25T21:24:22.078Z,62.04
2019-03-25T21:27:12.649Z,62.50
2019-03-25T21:30:03.094Z,62.31
2019-03-25T21:32:58.484Z,62.49
2019-03-25T21:35:38.458Z,62.20
2019-03-25T21:38:47.532Z,62.02
2019-03-25T21:41:37.871Z,62.35
2019-03-25T21:44:28.243Z,62.50
2019-03-25T21:47:18.599Z,62.60
2019-03-25T21:50:09.163Z,62.45
2019-03-25T21:52:59.563Z,62.45
2019-03-25T21:55:49.981Z,62.59
2019-03-25T21:58:40.640Z,62.52
2019-03-25T22:01:31.007Z,62.79
2019-03-25T22:04:21.253Z,63.00
2019-03-25T22:07:11.570Z,63.18
2019-03-25T22:10:01.895Z,63.65
2019-03-25T22:12:52.268Z,63.69
2019-03-25T22:15:42.568Z,63.60
2019-03-25T22:18:32.919Z,63.73
2019-03-25T22:21:23.206Z,63.43
2019-03-25T22:24:13.565Z,63.62
2019-03-25T22:27:03.908Z,63.92
2019-03-25T22:29:54.250Z,64.15
2019-03-25T22:32:44.544Z,64.28
2019-03-25T22:35:34.861Z,64.34
2019-03-25T22:38:25.153Z,64.58
2019-03-25T22:41:15.493Z,64.50
2019-03-25T22:44:05.837Z,64.71
2019-03-25T22:46:56.215Z,65.06
2019-03-25T22:49:46.482Z,64.82
2019-03-25T22:52:36.837Z,65.30
2019-03-25T22:55:27.213Z,65.21
2019-03-25T22:58:17.547Z,65.76
2019-03-25T23:01:07.885Z,66.10
2019-03-25T23:03:58.167Z,66.13
2019-03-25T23:06:48.482Z,66.04
2019-03-25T23:09:38.794Z,66.16
2019-03-25T23:12:09.708Z,66.37
2019-03-25T23:15:00.040Z,65.92
2019-03-25T23:17:50.331Z,65.08
2019-03-25T23:20:40.639Z,65.10
2019-03-25T23:23:31.003Z,64.98
2019-03-25T23:26:21.307Z,64.91
2019-03-25T23:29:11.637Z,64.95
2019-03-25T23:32:01.897Z,64.33
2019-03-25T23:34:52.265Z,64.77
2019-03-25T23:37:42.564Z,64.91
2019-03-25T23:40:32.882Z,64.84
2019-03-25T23:43:23.159Z,65.44
2019-03-25T23:46:13.489Z,64.97
2019-03-25T23:49:03.775Z,64.76
2019-03-25T23:51:54.099Z,64.53
2019-03-25T23:54:44.390Z,65.12
2019-03-25T23:57:34.731Z,64.77
